sensor_id;sensor_type;location;lat;lon;timestamp;pressure;altitude;pressure_sealevel;temperature;humidity
31092;BME280;67728;53.122;12.776;2023-08-01T00:01:10;99161.91;;;16.34;100.00
31092;BME280;67728;53.122;12.776;2023-08-01T00:02:41;99155.75;;;16.35;100.00
31092;BME280;67728;53.122;12.776;2023-08-01T00:04:13;99156.69;;;16.34;100.00
31092;BME280;67728;53.122;12.776;2023-08-01T00:05:46;99154.25;;;16.31;100.00
31092;BME280;67728;53.122;12.776;2023-08-01T00:07:17;99154.06;;;16.34;100.00
31092;BME280;67728;53.122;12.776;2023-08-01T00:08:48;99151.44;;;16.34;100.00
31092;BME280;67728;53.122;12.776;2023-08-01T00:10:19;99144.56;;;16.33;100.00
31092;BME280;67728;53.122;12.776;2023-08-01T00:11:50;99143.50;;;16.35;100.00
31092;BME280;67728;53.122;12.776;2023-08-01T00:13:21;99138.28;;;16.35;100.00
31092;BME280;67728;53.122;12.776;2023-08-01T00:14:52;99139.31;;;16.33;100.00
31092;BME280;67728;53.122;12.776;2023-08-01T00:16:23;99124.44;;;16.33;100.00
31092;BME280;67728;53.122;12.776;2023-08-01T00:17:54;99127.16;;;16.32;100.00
31092;BME280;67728;53.122;12.776;2023-08-01T00:19:27;99126.31;;;16.31;100.00
31092;BME280;67728;53.122;12.776;2023-08-01T00:20:58;99115.78;;;16.33;100.00
31092;BME280;67728;53.122;12.776;2023-08-01T00:22:29;99119.19;;;16.33;100.00
31092;BME280;67728;53.122;12.776;2023-08-01T00:24:00;99110.53;;;16.33;100.00
31092;BME280;67728;53.122;12.776;2023-08-01T00:25:31;99115.78;;;16.33;100.00
31092;BME280;67728;53.122;12.776;2023-08-01T00:27:02;99110.63;;;16.31;100.00
31092;BME280;67728;53.122;12.776;2023-08-01T00:28:33;99107.16;;;16.31;100.00
31092;BME280;67728;53.122;12.776;2023-08-01T00:30:05;99101.84;;;16.32;100.00
31092;BME280;67728;53.122;12.776;2023-08-01T00:31:35;99101.84;;;16.32;100.00
31092;BME280;67728;53.122;12.776;2023-08-01T00:33:06;99092.50;;;16.28;100.00
31092;BME280;67728;53.122;12.776;2023-08-01T00:34:39;99086.41;;;16.28;100.00
31092;BME280;67728;53.122;12.776;2023-08-01T00:46:37;99078.56;;;16.28;100.00
31092;BME280;67728;53.122;12.776;2023-08-01T00:48:08;99079.59;;;16.25;100.00
31092;BME280;67728;53.122;12.776;2023-08-01T00:49:41;99078.56;;;16.28;100.00
31092;BME280;67728;53.122;12.776;2023-08-01T00:51:12;99073.56;;;16.25;100.00
31092;BME280;67728;53.122;12.776;2023-08-01T00:52:44;99070.63;;;16.29;100.00
31092;BME280;67728;53.122;12.776;2023-08-01T00:54:14;99062.88;;;16.28;100.00
31092;BME280;67728;53.122;12.776;2023-08-01T00:55:46;99065.41;;;16.29;100.00
31092;BME280;67728;53.122;12.776;2023-08-01T00:57:16;99063.81;;;16.27;100.00
31092;BME280;67728;53.122;12.776;2023-08-01T00:58:48;99061.22;;;16.27;100.00
31092;BME280;67728;53.122;12.776;2023-08-01T01:00:18;99055.25;;;16.25;100.00
31092;BME280;67728;53.122;12.776;2023-08-01T01:01:49;99055.97;;;16.27;100.00
31092;BME280;67728;53.122;12.776;2023-08-01T01:03:20;99048.84;;;16.29;100.00
31092;BME280;67728;53.122;12.776;2023-08-01T01:04:53;99043.75;;;16.27;100.00
31092;BME280;67728;53.122;12.776;2023-08-01T01:06:26;99038.59;;;16.26;100.00
31092;BME280;67728;53.122;12.776;2023-08-01T01:07:58;99033.34;;;16.26;100.00
31092;BME280;67728;53.122;12.776;2023-08-01T01:09:30;99020.47;;;16.23;100.00
31092;BME280;67728;53.122;12.776;2023-08-01T01:11:02;99018.69;;;16.23;100.00
31092;BME280;67728;53.122;12.776;2023-08-01T01:12:34;99005.53;;;16.25;100.00
31092;BME280;67728;53.122;12.776;2023-08-01T01:14:04;99005.63;;;16.23;100.00
31092;BME280;67728;53.122;12.776;2023-08-01T01:15:36;98999.47;;;16.24;100.00
31092;BME280;67728;53.122;12.776;2023-08-01T01:17:06;99002.16;;;16.23;100.00
31092;BME280;67728;53.122;12.776;2023-08-01T01:18:38;99007.19;;;16.26;100.00
31092;BME280;67728;53.122;12.776;2023-08-01T01:20:10;99005.53;;;16.25;100.00
31092;BME280;67728;53.122;12.776;2023-08-01T01:21:43;99003.13;;;16.22;100.00
31092;BME280;67728;53.122;12.776;2023-08-01T01:23:14;98996.06;;;16.22;100.00
31092;BME280;67728;53.122;12.776;2023-08-01T01:24:45;98989.06;;;16.23;100.00
31092;BME280;67728;53.122;12.776;2023-08-01T01:26:17;98980.28;;;16.24;100.00
31092;BME280;67728;53.122;12.776;2023-08-01T01:27:51;98979.38;;;16.25;100.00
31092;BME280;67728;53.122;12.776;2023-08-01T01:29:23;98978.59;;;16.23;100.00
31092;BME280;67728;53.122;12.776;2023-08-01T01:30:54;98975.78;;;16.26;100.00
31092;BME280;67728;53.122;12.776;2023-08-01T01:32:25;98972.44;;;16.24;100.00
31092;BME280;67728;53.122;12.776;2023-08-01T01:33:56;98970.69;;;16.24;100.00
31092;BME280;67728;53.122;12.776;2023-08-01T01:35:27;98966.56;;;16.20;100.00
31092;BME280;67728;53.122;12.776;2023-08-01T01:37:00;98978.72;;;16.21;100.00
31092;BME280;67728;53.122;12.776;2023-08-01T01:38:30;98966.50;;;16.22;100.00
31092;BME280;67728;53.122;12.776;2023-08-01T01:40:01;98963.75;;;16.23;100.00
31092;BME280;67728;53.122;12.776;2023-08-01T01:41:32;98959.38;;;16.24;100.00
31092;BME280;67728;53.122;12.776;2023-08-01T01:43:03;98959.44;;;16.22;100.00
31092;BME280;67728;53.122;12.776;2023-08-01T01:44:34;98957.78;;;16.21;100.00
31092;BME280;67728;53.122;12.776;2023-08-01T01:46:05;98956.09;;;16.20;100.00
31092;BME280;67728;53.122;12.776;2023-08-01T01:47:36;98955.38;;;16.18;100.00
31092;BME280;67728;53.122;12.776;2023-08-01T01:49:07;98959.38;;;16.24;100.00
31092;BME280;67728;53.122;12.776;2023-08-01T01:50:38;98950.16;;;16.18;100.00
31092;BME280;67728;53.122;12.776;2023-08-01T01:52:10;98943.16;;;16.19;100.00
31092;BME280;67728;53.122;12.776;2023-08-01T01:53:41;98945.66;;;16.20;100.00
31092;BME280;67728;53.122;12.776;2023-08-01T01:55:12;98938.13;;;16.15;100.00
31092;BME280;67728;53.122;12.776;2023-08-01T01:56:43;98933.81;;;16.14;100.00
31092;BME280;67728;53.122;12.776;2023-08-01T01:58:14;98930.16;;;16.17;100.00
31092;BME280;67728;53.122;12.776;2023-08-01T01:59:44;98919.81;;;16.15;100.00
31092;BME280;67728;53.122;12.776;2023-08-01T02:01:16;98916.25;;;16.17;100.00
31092;BME280;67728;53.122;12.776;2023-08-01T02:02:46;98919.69;;;16.17;100.00
31092;BME280;67728;53.122;12.776;2023-08-01T02:04:18;98929.34;;;16.17;100.00
31092;BME280;67728;53.122;12.776;2023-08-01T02:05:49;98922.41;;;16.15;100.00
31092;BME280;67728;53.122;12.776;2023-08-01T02:07:21;98920.84;;;16.13;100.00
31092;BME280;67728;53.122;12.776;2023-08-01T02:08:52;98921.69;;;16.13;100.00
31092;BME280;67728;53.122;12.776;2023-08-01T02:10:24;98921.56;;;16.15;100.00
31092;BME280;67728;53.122;12.776;2023-08-01T02:11:54;98915.50;;;16.14;100.00
31092;BME280;67728;53.122;12.776;2023-08-01T02:13:26;98916.34;;;16.15;100.00
31092;BME280;67728;53.122;12.776;2023-08-01T02:14:57;98909.41;;;16.14;100.00
31092;BME280;67728;53.122;12.776;2023-08-01T02:16:28;98914.88;;;16.11;100.00
31092;BME280;67728;53.122;12.776;2023-08-01T02:17:58;98913.09;;;16.11;100.00
31092;BME280;67728;53.122;12.776;2023-08-01T02:19:30;98904.94;;;16.16;100.00
31092;BME280;67728;53.122;12.776;2023-08-01T02:21:00;98900.66;;;16.15;100.00
31092;BME280;67728;53.122;12.776;2023-08-01T02:22:33;98907.56;;;16.16;100.00
31092;BME280;67728;53.122;12.776;2023-08-01T02:24:04;98900.66;;;16.15;100.00
31092;BME280;67728;53.122;12.776;2023-08-01T02:25:38;98900.66;;;16.15;100.00
31092;BME280;67728;53.122;12.776;2023-08-01T02:27:09;98898.22;;;16.12;100.00
31092;BME280;67728;53.122;12.776;2023-08-01T02:28:39;98903.19;;;16.17;100.00
31092;BME280;67728;53.122;12.776;2023-08-01T02:30:11;98894.38;;;16.17;100.00
31092;BME280;67728;53.122;12.776;2023-08-01T02:31:42;98894.50;;;16.16;100.00
31092;BME280;67728;53.122;12.776;2023-08-01T02:33:13;98892.91;;;16.13;100.00
31092;BME280;67728;53.122;12.776;2023-08-01T02:34:44;98895.41;;;16.15;100.00
31092;BME280;67728;53.122;12.776;2023-08-01T02:36:15;98893.13;;;16.10;100.00
31092;BME280;67728;53.122;12.776;2023-08-01T02:37:48;98890.50;;;16.10;100.00
31092;BME280;67728;53.122;12.776;2023-08-01T02:39:19;98886.19;;;16.09;100.00
31092;BME280;67728;53.122;12.776;2023-08-01T02:40:50;98886.84;;;16.13;100.00
31092;BME280;67728;53.122;12.776;2023-08-01T02:42:20;98886.19;;;16.09;100.00
31092;BME280;67728;53.122;12.776;2023-08-01T02:43:52;98887.03;;;16.10;100.00
31092;BME280;67728;53.122;12.776;2023-08-01T02:45:22;98884.31;;;16.11;100.00
31092;BME280;67728;53.122;12.776;2023-08-01T02:46:54;98883.38;;;16.12;100.00
31092;BME280;67728;53.122;12.776;2023-08-01T02:48:24;98885.16;;;16.12;100.00
31092;BME280;67728;53.122;12.776;2023-08-01T02:49:56;98875.53;;;16.12;100.00
31092;BME280;67728;53.122;12.776;2023-08-01T02:51:26;98879.06;;;16.11;100.00
31092;BME280;67728;53.122;12.776;2023-08-01T02:52:59;98876.38;;;16.13;100.00
31092;BME280;67728;53.122;12.776;2023-08-01T02:54:29;98871.22;;;16.11;100.00
31092;BME280;67728;53.122;12.776;2023-08-01T02:56:01;98875.41;;;16.14;100.00
31092;BME280;67728;53.122;12.776;2023-08-01T02:57:31;98872.91;;;16.12;100.00
31092;BME280;67728;53.122;12.776;2023-08-01T02:59:02;98878.16;;;16.12;100.00
31092;BME280;67728;53.122;12.776;2023-08-01T03:00:37;98874.81;;;16.10;100.00
31092;BME280;67728;53.122;12.776;2023-08-01T03:02:09;98868.63;;;16.11;100.00
31092;BME280;67728;53.122;12.776;2023-08-01T03:03:40;98872.28;;;16.09;100.00
31092;BME280;67728;53.122;12.776;2023-08-01T03:05:11;98861.94;;;16.07;100.00
31092;BME280;67728;53.122;12.776;2023-08-01T03:06:42;98870.72;;;16.06;100.00
31092;BME280;67728;53.122;12.776;2023-08-01T03:08:14;98865.38;;;16.08;100.00
31092;BME280;67728;53.122;12.776;2023-08-01T03:09:45;98862.84;;;16.06;100.00
31092;BME280;67728;53.122;12.776;2023-08-01T03:11:16;98858.59;;;16.05;100.00
31092;BME280;67728;53.122;12.776;2023-08-01T03:12:48;98861.09;;;16.07;100.00
31092;BME280;67728;53.122;12.776;2023-08-01T03:14:18;98857.53;;;16.08;100.00
31092;BME280;67728;53.122;12.776;2023-08-01T03:15:49;98861.94;;;16.07;100.00
31092;BME280;67728;53.122;12.776;2023-08-01T03:17:20;98857.53;;;16.08;100.00
31092;BME280;67728;53.122;12.776;2023-08-01T03:18:51;98850.50;;;16.08;100.00
31092;BME280;67728;53.122;12.776;2023-08-01T03:20:22;98853.03;;;16.10;100.00
31092;BME280;67728;53.122;12.776;2023-08-01T03:21:53;98848.84;;;16.07;100.00
31092;BME280;67728;53.122;12.776;2023-08-01T03:23:26;98844.34;;;16.09;100.00
31092;BME280;67728;53.122;12.776;2023-08-01T03:24:57;98846.25;;;16.07;100.00
31092;BME280;67728;53.122;12.776;2023-08-01T03:26:28;98842.38;;;16.13;100.00
31092;BME280;67728;53.122;12.776;2023-08-01T03:27:59;98843.50;;;16.09;100.00
31092;BME280;67728;53.122;12.776;2023-08-01T03:29:30;98846.44;;;16.17;100.00
31092;BME280;67728;53.122;12.776;2023-08-01T03:31:01;98841.84;;;16.21;100.00
31092;BME280;67728;53.122;12.776;2023-08-01T03:32:31;98851.88;;;16.14;100.00
31092;BME280;67728;53.122;12.776;2023-08-01T03:34:03;98846.88;;;16.11;100.00
31092;BME280;67728;53.122;12.776;2023-08-01T03:35:33;98848.53;;;16.12;100.00
31092;BME280;67728;53.122;12.776;2023-08-01T03:37:05;98845.91;;;16.12;100.00
31092;BME280;67728;53.122;12.776;2023-08-01T03:38:37;98844.16;;;16.12;100.00
31092;BME280;67728;53.122;12.776;2023-08-01T03:40:08;98845.00;;;16.13;100.00
31092;BME280;67728;53.122;12.776;2023-08-01T03:41:40;98834.41;;;16.14;100.00
31092;BME280;67728;53.122;12.776;2023-08-01T03:43:10;98826.69;;;16.13;100.00
31092;BME280;67728;53.122;12.776;2023-08-01T03:44:42;98830.34;;;16.10;100.00
31092;BME280;67728;53.122;12.776;2023-08-01T03:46:12;98838.28;;;16.09;100.00
31092;BME280;67728;53.122;12.776;2023-08-01T03:47:44;98839.31;;;16.06;100.00
31092;BME280;67728;53.122;12.776;2023-08-01T03:49:14;98834.72;;;16.10;100.00
31092;BME280;67728;53.122;12.776;2023-08-01T03:50:46;98844.25;;;16.11;100.00
31092;BME280;67728;53.122;12.776;2023-08-01T03:52:16;98841.72;;;16.09;100.00
31092;BME280;67728;53.122;12.776;2023-08-01T03:53:49;98846.03;;;16.10;100.00
31092;BME280;67728;53.122;12.776;2023-08-01T03:55:20;98837.13;;;16.13;100.00
31092;BME280;67728;53.122;12.776;2023-08-01T03:56:51;98841.53;;;16.12;100.00
31092;BME280;67728;53.122;12.776;2023-08-01T03:58:22;98839.97;;;16.10;100.00
31092;BME280;67728;53.122;12.776;2023-08-01T03:59:53;98837.53;;;16.07;100.00
31092;BME280;67728;53.122;12.776;2023-08-01T04:01:23;98838.06;;;16.12;100.00
31092;BME280;67728;53.122;12.776;2023-08-01T04:02:55;98820.72;;;16.11;100.00
31092;BME280;67728;53.122;12.776;2023-08-01T04:04:25;98817.78;;;16.15;100.00
31092;BME280;67728;53.122;12.776;2023-08-01T04:05:57;98824.06;;;16.13;100.00
31092;BME280;67728;53.122;12.776;2023-08-01T04:07:27;98819.88;;;16.10;100.00
31092;BME280;67728;53.122;12.776;2023-08-01T04:09:00;98820.50;;;16.14;100.00
31092;BME280;67728;53.122;12.776;2023-08-01T04:10:30;98815.38;;;16.12;100.00
31092;BME280;67728;53.122;12.776;2023-08-01T04:12:02;98816.41;;;16.10;100.00
31092;BME280;67728;53.122;12.776;2023-08-01T04:13:32;98819.88;;;16.10;100.00
31092;BME280;67728;53.122;12.776;2023-08-01T04:15:04;98819.75;;;16.12;100.00
31092;BME280;67728;53.122;12.776;2023-08-01T04:16:35;98822.38;;;16.12;100.00
31092;BME280;67728;53.122;12.776;2023-08-01T04:18:06;98814.53;;;16.12;100.00
31092;BME280;67728;53.122;12.776;2023-08-01T04:19:36;98820.50;;;16.14;100.00
31092;BME280;67728;53.122;12.776;2023-08-01T04:21:08;98819.88;;;16.10;100.00
31092;BME280;67728;53.122;12.776;2023-08-01T04:22:39;98823.22;;;16.12;100.00
31092;BME280;67728;53.122;12.776;2023-08-01T04:24:11;98812.56;;;16.15;100.00
31092;BME280;67728;53.122;12.776;2023-08-01T04:25:42;98814.00;;;16.20;100.00
31092;BME280;67728;53.122;12.776;2023-08-01T04:27:13;98818.50;;;16.17;100.00
31092;BME280;67728;53.122;12.776;2023-08-01T04:28:45;98815.03;;;16.17;100.00
31092;BME280;67728;53.122;12.776;2023-08-01T04:30:16;98819.16;;;16.21;100.00
31092;BME280;67728;53.122;12.776;2023-08-01T04:31:48;98815.81;;;16.19;100.00
31092;BME280;67728;53.122;12.776;2023-08-01T04:33:18;98814.31;;;16.15;100.00
31092;BME280;67728;53.122;12.776;2023-08-01T04:34:50;98807.97;;;16.19;100.00
31092;BME280;67728;53.122;12.776;2023-08-01T04:36:20;98815.88;;;16.17;100.00
31092;BME280;67728;53.122;12.776;2023-08-01T04:37:52;98816.63;;;16.20;100.00
31092;BME280;67728;53.122;12.776;2023-08-01T04:39:23;98812.44;;;16.17;100.00
31092;BME280;67728;53.122;12.776;2023-08-01T04:40:55;98808.16;;;16.16;100.00
31092;BME280;67728;53.122;12.776;2023-08-01T04:42:25;98803.78;;;16.17;100.00
31092;BME280;67728;53.122;12.776;2023-08-01T04:43:57;98801.38;;;16.13;100.00
31092;BME280;67728;53.122;12.776;2023-08-01T04:45:28;98798.41;;;16.18;100.00
31092;BME280;67728;53.122;12.776;2023-08-01T04:47:00;98803.44;;;16.21;100.00
31092;BME280;67728;53.122;12.776;2023-08-01T04:48:30;98799.06;;;16.22;100.00
31092;BME280;67728;53.122;12.776;2023-08-01T04:50:01;98794.53;;;16.24;100.00
31092;BME280;67728;53.122;12.776;2023-08-01T04:51:32;98791.22;;;16.22;100.00
31092;BME280;67728;53.122;12.776;2023-08-01T04:53:03;98785.34;;;16.18;100.00
31092;BME280;67728;53.122;12.776;2023-08-01T04:54:37;98778.44;;;16.17;100.00
31092;BME280;67728;53.122;12.776;2023-08-01T04:56:09;98780.94;;;16.19;100.00
31092;BME280;67728;53.122;12.776;2023-08-01T04:57:39;98780.75;;;16.22;100.00
31092;BME280;67728;53.122;12.776;2023-08-01T04:59:11;98782.19;;;16.26;100.00
31092;BME280;67728;53.122;12.776;2023-08-01T05:00:41;98784.81;;;16.26;100.00
31092;BME280;67728;53.122;12.776;2023-08-01T05:02:13;98787.22;;;16.29;100.00
31092;BME280;67728;53.122;12.776;2023-08-01T05:03:44;98786.16;;;16.31;100.00
31092;BME280;67728;53.122;12.776;2023-08-01T05:05:15;98775.69;;;16.31;100.00
31092;BME280;67728;53.122;12.776;2023-08-01T05:06:46;98781.84;;;16.30;100.00
31092;BME280;67728;53.122;12.776;2023-08-01T05:08:17;98779.88;;;16.34;100.00
31092;BME280;67728;53.122;12.776;2023-08-01T05:09:49;98776.53;;;16.32;100.00
31092;BME280;67728;53.122;12.776;2023-08-01T05:11:20;98782.81;;;16.29;100.00
31092;BME280;67728;53.122;12.776;2023-08-01T05:12:51;98774.84;;;16.31;100.00
31092;BME280;67728;53.122;12.776;2023-08-01T05:14:22;98779.88;;;16.34;100.00
31092;BME280;67728;53.122;12.776;2023-08-01T05:15:52;98770.97;;;16.36;100.00
31092;BME280;67728;53.122;12.776;2023-08-01T05:17:24;98770.13;;;16.36;100.00
31092;BME280;67728;53.122;12.776;2023-08-01T05:18:54;98770.13;;;16.36;100.00
31092;BME280;67728;53.122;12.776;2023-08-01T05:20:26;98767.44;;;16.37;100.00
31092;BME280;67728;53.122;12.776;2023-08-01T05:22:00;98769.00;;;16.40;100.00
31092;BME280;67728;53.122;12.776;2023-08-01T05:23:32;98765.44;;;16.41;100.00
31092;BME280;67728;53.122;12.776;2023-08-01T05:25:04;98763.63;;;16.41;100.00
31092;BME280;67728;53.122;12.776;2023-08-01T05:26:36;98763.75;;;16.40;100.00
31092;BME280;67728;53.122;12.776;2023-08-01T05:28:06;98766.25;;;16.41;100.00
31092;BME280;67728;53.122;12.776;2023-08-01T05:29:38;98757.34;;;16.44;100.00
31092;BME280;67728;53.122;12.776;2023-08-01T05:31:09;98762.38;;;16.47;100.00
31092;BME280;67728;53.122;12.776;2023-08-01T05:32:39;98763.22;;;16.47;100.00
31092;BME280;67728;53.122;12.776;2023-08-01T05:34:11;98764.06;;;16.48;100.00
31092;BME280;67728;53.122;12.776;2023-08-01T05:35:41;98757.63;;;16.52;100.00
31092;BME280;67728;53.122;12.776;2023-08-01T05:37:13;98762.38;;;16.47;100.00
31092;BME280;67728;53.122;12.776;2023-08-01T05:38:43;98761.56;;;16.46;100.00
31092;BME280;67728;53.122;12.776;2023-08-01T05:40:16;98764.91;;;16.48;100.00
31092;BME280;67728;53.122;12.776;2023-08-01T05:41:46;98763.13;;;16.49;100.00
31092;BME280;67728;53.122;12.776;2023-08-01T05:43:18;98761.31;;;16.49;100.00
31092;BME280;67728;53.122;12.776;2023-08-01T05:44:48;98760.25;;;16.52;100.00
31092;BME280;67728;53.122;12.776;2023-08-01T05:46:20;98766.06;;;16.57;100.00
31092;BME280;67728;53.122;12.776;2023-08-01T05:47:52;98758.31;;;16.55;100.00
31092;BME280;67728;53.122;12.776;2023-08-01T05:49:23;98751.16;;;16.57;100.00
31092;BME280;67728;53.122;12.776;2023-08-01T05:50:53;98751.72;;;16.62;100.00
31092;BME280;67728;53.122;12.776;2023-08-01T05:52:26;98754.41;;;16.61;100.00
31092;BME280;67728;53.122;12.776;2023-08-01T05:53:56;98758.72;;;16.62;100.00
31092;BME280;67728;53.122;12.776;2023-08-01T05:55:29;98753.88;;;16.68;100.00
31092;BME280;67728;53.122;12.776;2023-08-01T05:56:59;98748.63;;;16.68;100.00
31092;BME280;67728;53.122;12.776;2023-08-01T05:58:31;98754.50;;;16.72;100.00
31092;BME280;67728;53.122;12.776;2023-08-01T06:00:01;98754.38;;;16.73;100.00
31092;BME280;67728;53.122;12.776;2023-08-01T06:01:32;98751.75;;;16.73;100.00
31092;BME280;67728;53.122;12.776;2023-08-01T06:03:03;98753.09;;;16.79;100.00
31092;BME280;67728;53.122;12.776;2023-08-01T06:04:34;98752.88;;;16.82;100.00
31092;BME280;67728;53.122;12.776;2023-08-01T06:06:06;98760.50;;;16.85;100.00
31092;BME280;67728;53.122;12.776;2023-08-01T06:07:36;98760.50;;;16.85;100.00
31092;BME280;67728;53.122;12.776;2023-08-01T06:09:08;98759.66;;;16.85;100.00
31092;BME280;67728;53.122;12.776;2023-08-01T06:10:39;98763.84;;;16.87;100.00
31092;BME280;67728;53.122;12.776;2023-08-01T06:12:11;98759.34;;;16.89;100.00
31092;BME280;67728;53.122;12.776;2023-08-01T06:13:41;98749.19;;;16.85;100.00
31092;BME280;67728;53.122;12.776;2023-08-01T06:15:13;98751.72;;;16.86;100.00
31092;BME280;67728;53.122;12.776;2023-08-01T06:16:44;98758.94;;;16.83;100.00
31092;BME280;67728;53.122;12.776;2023-08-01T06:18:15;98756.56;;;16.80;100.00
31092;BME280;67728;53.122;12.776;2023-08-01T06:19:46;98760.94;;;16.79;100.00
31092;BME280;67728;53.122;12.776;2023-08-01T06:21:18;98756.06;;;16.74;100.00
31092;BME280;67728;53.122;12.776;2023-08-01T06:22:49;98750.69;;;16.76;100.00
31092;BME280;67728;53.122;12.776;2023-08-01T06:24:21;98757.38;;;16.80;100.00
31092;BME280;67728;53.122;12.776;2023-08-01T06:25:52;98744.19;;;16.82;100.00
31092;BME280;67728;53.122;12.776;2023-08-01T06:27:24;98748.81;;;16.78;100.00
31092;BME280;67728;53.122;12.776;2023-08-01T06:28:55;98754.91;;;16.79;100.00
31092;BME280;67728;53.122;12.776;2023-08-01T06:30:26;98760.72;;;16.82;100.00
31092;BME280;67728;53.122;12.776;2023-08-01T06:31:57;98763.25;;;16.84;100.00
31092;BME280;67728;53.122;12.776;2023-08-01T06:33:28;98760.50;;;16.85;100.00
31092;BME280;67728;53.122;12.776;2023-08-01T06:34:59;98757.81;;;16.87;100.00
31092;BME280;67728;53.122;12.776;2023-08-01T06:36:31;98749.09;;;16.86;100.00
31092;BME280;67728;53.122;12.776;2023-08-01T06:38:02;98751.50;;;16.89;100.00
31092;BME280;67728;53.122;12.776;2023-08-01T06:39:34;98747.53;;;16.84;100.00
31092;BME280;67728;53.122;12.776;2023-08-01T06:41:06;98747.84;;;16.79;100.00
31092;BME280;67728;53.122;12.776;2023-08-01T06:42:38;98749.41;;;16.82;100.00
31092;BME280;67728;53.122;12.776;2023-08-01T06:44:10;98747.63;;;16.82;100.00
31092;BME280;67728;53.122;12.776;2023-08-01T06:45:40;98751.72;;;16.86;100.00
31092;BME280;67728;53.122;12.776;2023-08-01T06:47:12;98743.97;;;16.85;100.00
31092;BME280;67728;53.122;12.776;2023-08-01T06:48:42;98740.91;;;16.91;100.00
31092;BME280;67728;53.122;12.776;2023-08-01T06:50:14;98739.00;;;16.93;100.00
31092;BME280;67728;53.122;12.776;2023-08-01T06:51:45;98739.63;;;16.96;100.00
31092;BME280;67728;53.122;12.776;2023-08-01T06:53:16;98742.13;;;16.98;100.00
31092;BME280;67728;53.122;12.776;2023-08-01T06:54:47;98752.06;;;17.05;100.00
31092;BME280;67728;53.122;12.776;2023-08-01T06:56:20;98754.78;;;17.04;100.00
31092;BME280;67728;53.122;12.776;2023-08-01T06:57:52;98757.38;;;17.04;100.00
31092;BME280;67728;53.122;12.776;2023-08-01T06:59:24;98746.81;;;17.05;100.00
31092;BME280;67728;53.122;12.776;2023-08-01T07:00:54;98742.28;;;17.07;100.00
31092;BME280;67728;53.122;12.776;2023-08-01T07:02:26;98739.34;;;17.12;100.00
31092;BME280;67728;53.122;12.776;2023-08-01T07:03:57;98747.69;;;17.17;100.00
31092;BME280;67728;53.122;12.776;2023-08-01T07:05:28;98739.34;;;17.12;100.00
31092;BME280;67728;53.122;12.776;2023-08-01T07:06:59;98745.06;;;17.17;100.00
31092;BME280;67728;53.122;12.776;2023-08-01T07:08:31;98751.63;;;17.22;100.00
31092;BME280;67728;53.122;12.776;2023-08-01T07:10:02;98741.63;;;17.16;100.00
31092;BME280;67728;53.122;12.776;2023-08-01T07:11:35;98746.19;;;17.25;100.00
31092;BME280;67728;53.122;12.776;2023-08-01T07:13:06;98745.94;;;17.28;100.00
31092;BME280;67728;53.122;12.776;2023-08-01T07:14:38;98745.19;;;17.15;100.00
31092;BME280;67728;53.122;12.776;2023-08-01T07:16:09;98746.97;;;17.15;100.00
31092;BME280;67728;53.122;12.776;2023-08-01T07:17:40;98744.25;;;17.16;100.00
31092;BME280;67728;53.122;12.776;2023-08-01T07:19:11;98743.78;;;17.22;100.00
31092;BME280;67728;53.122;12.776;2023-08-01T07:20:42;98741.00;;;17.13;100.00
31092;BME280;67728;53.122;12.776;2023-08-01T07:22:13;98746.91;;;17.04;100.00
31092;BME280;67728;53.122;12.776;2023-08-01T07:23:45;98747.34;;;16.98;100.00
31092;BME280;67728;53.122;12.776;2023-08-01T07:25:18;98747.19;;;16.88;100.00
31092;BME280;67728;53.122;12.776;2023-08-01T07:26:50;98743.88;;;16.86;100.00
31092;BME280;67728;53.122;12.776;2023-08-01T07:28:22;98740.28;;;16.87;100.00
31092;BME280;67728;53.122;12.776;2023-08-01T07:29:53;98739.56;;;16.85;100.00
31092;BME280;67728;53.122;12.776;2023-08-01T07:31:24;98737.91;;;16.84;100.00
31092;BME280;67728;53.122;12.776;2023-08-01T07:32:55;98725.91;;;16.93;100.00
31092;BME280;67728;53.122;12.776;2023-08-01T07:34:26;98736.28;;;16.94;100.00
31092;BME280;67728;53.122;12.776;2023-08-01T07:35:57;98739.78;;;17.06;100.00
31092;BME280;67728;53.122;12.776;2023-08-01T07:37:29;98740.66;;;17.17;100.00
31092;BME280;67728;53.122;12.776;2023-08-01T07:38:59;98736.25;;;17.18;100.00
31092;BME280;67728;53.122;12.776;2023-08-01T07:40:31;98738.03;;;17.17;100.00
31092;BME280;67728;53.122;12.776;2023-08-01T07:42:04;98731.16;;;17.16;100.00
31092;BME280;67728;53.122;12.776;2023-08-01T07:43:35;98737.94;;;17.19;100.00
31092;BME280;67728;53.122;12.776;2023-08-01T07:45:07;98735.19;;;17.20;100.00
31092;BME280;67728;53.122;12.776;2023-08-01T07:46:38;98737.09;;;17.18;100.00
31092;BME280;67728;53.122;12.776;2023-08-01T07:48:09;98734.34;;;17.20;100.00
31092;BME280;67728;53.122;12.776;2023-08-01T07:49:41;98734.50;;;17.18;100.00
31092;BME280;67728;53.122;12.776;2023-08-01T07:51:13;98732.34;;;17.23;100.00
31092;BME280;67728;53.122;12.776;2023-08-01T07:52:43;98737.09;;;17.18;100.00
31092;BME280;67728;53.122;12.776;2023-08-01T07:54:15;98741.84;;;17.13;100.00
31092;BME280;67728;53.122;12.776;2023-08-01T07:55:45;98737.19;;;17.17;100.00
31092;BME280;67728;53.122;12.776;2023-08-01T07:57:18;98729.97;;;17.20;100.00
31092;BME280;67728;53.122;12.776;2023-08-01T07:58:49;98736.03;;;17.21;100.00
31092;BME280;67728;53.122;12.776;2023-08-01T08:00:20;98732.34;;;17.23;100.00
31092;BME280;67728;53.122;12.776;2023-08-01T08:01:52;98724.72;;;17.20;100.00